Time;durP1;ratioP1;P1;durP2;ratioP2;P2;SDS_P1;SDS_P2;PMS_P1;PMS_P2;Temp;Humidity;BMP_temperature;BMP_pressure;BME280_temperature;BME280_humidity;BME280_pressure;Samples;Min_cycle;Max_cycle;Signal;HPM_P1;HPM_P2
2021/12/26 00:00:47;;;;;;;5.95;2.85;;;;;;;-2.42;88.63;100815.19;5023791;28;20099;-44
2021/12/26 00:03:12;;;;;;;10.20;4.05;;;;;;;-2.38;88.75;100816.72;5035511;28;20568;-43
2021/12/26 00:05:38;;;;;;;4.75;2.53;;;;;;;-2.37;88.06;100814.97;5037303;28;20222;-45
2021/12/26 00:08:04;;;;;;;7.78;3.47;;;;;;;-2.37;87.56;100822.81;5037915;28;20302;-46
2021/12/26 00:10:30;;;;;;;10.93;4.60;;;;;;;-2.40;86.89;100815.94;5036503;28;20031;-43
2021/12/26 00:12:56;;;;;;;26.58;8.10;;;;;;;-2.37;87.25;100821.03;5038325;28;20104;-44
2021/12/26 00:15:21;;;;;;;13.05;4.32;;;;;;;-2.35;88.56;100813.09;5037989;28;20455;-44
2021/12/26 00:17:47;;;;;;;25.42;9.50;;;;;;;-2.35;88.14;100807.88;5036568;28;20107;-44
2021/12/26 00:20:13;;;;;;;5.70;2.50;;;;;;;-2.31;88.69;100805.03;5037702;28;20215;-44
2021/12/26 00:22:39;;;;;;;9.25;3.83;;;;;;;-2.29;88.68;100815.38;5037179;28;20471;-43
2021/12/26 00:25:07;;;;;;;8.52;3.70;;;;;;;-2.26;89.30;100808.25;5037266;28;20550;-47
2021/12/26 00:27:33;;;;;;;7.03;3.80;;;;;;;-2.23;88.45;100803.78;5037356;28;20075;-46
2021/12/26 00:29:58;;;;;;;6.47;3.05;;;;;;;-2.20;89.58;100791.38;5038618;28;20075;-47
2021/12/26 00:32:24;;;;;;;6.57;2.50;;;;;;;-2.15;88.31;100796.38;5038196;28;20028;-45
2021/12/26 00:34:50;;;;;;;7.10;2.60;;;;;;;-2.14;88.76;100798.06;5037061;28;20056;-46
2021/12/26 00:37:17;;;;;;;6.47;3.50;;;;;;;-2.15;88.41;100783.31;5037686;28;20052;-45
2021/12/26 00:39:43;;;;;;;8.75;3.05;;;;;;;-2.14;88.53;100795.44;5037117;28;20020;-48
2021/12/26 00:42:08;;;;;;;8.30;4.05;;;;;;;-2.13;87.88;100786.69;5038570;28;20319;-45
2021/12/26 00:44:39;;;;;;;7.55;3.55;;;;;;;-2.14;87.86;100784.97;5037948;28;20041;-48
2021/12/26 00:47:05;;;;;;;5.45;2.63;;;;;;;-2.12;88.67;100783.13;5038664;28;20017;-45
2021/12/26 00:49:30;;;;;;;5.32;2.72;;;;;;;-2.13;87.33;100779.66;5037249;28;20484;-48
2021/12/26 00:51:56;;;;;;;7.85;4.10;;;;;;;-2.12;87.95;100781.38;5038003;28;20032;-48
2021/12/26 00:54:21;;;;;;;7.13;4.00;;;;;;;-2.11;87.72;100783.03;5035422;28;20108;-46
2021/12/26 00:56:46;;;;;;;5.93;2.97;;;;;;;-2.11;88.21;100787.44;5024600;28;20052;-47
2021/12/26 00:59:12;;;;;;;4.68;2.47;;;;;;;-2.12;86.72;100793.56;5024163;28;20029;-47
2021/12/26 01:01:37;;;;;;;10.77;4.30;;;;;;;-2.12;88.04;100793.56;5023700;28;20043;-45
2021/12/26 01:04:03;;;;;;;9.50;5.30;;;;;;;-2.14;88.12;100796.31;5024508;28;20063;-45
2021/12/26 01:06:28;;;;;;;8.98;4.43;;;;;;;-2.11;89.20;100795.28;5023977;28;20107;-44
2021/12/26 01:08:54;;;;;;;5.18;2.75;;;;;;;-2.11;88.49;100795.28;5023142;28;20054;-49
2021/12/26 01:11:34;;;;;;;6.45;2.67;;;;;;;-2.13;88.27;100795.38;5028528;28;20025;-44
2021/12/26 01:14:01;;;;;;;4.80;2.25;;;;;;;-2.13;88.33;100799.75;5044611;28;20132;-48
2021/12/26 01:16:28;;;;;;;4.22;2.40;;;;;;;-2.15;88.36;100802.44;5043910;28;20451;-42
2021/12/26 01:18:59;;;;;;;7.65;3.03;;;;;;;-2.13;89.40;100803.22;5042594;28;20037;-47
2021/12/26 01:21:25;;;;;;;7.63;2.40;;;;;;;-2.13;88.95;100805.00;5043670;28;20113;-43
2021/12/26 01:24:01;;;;;;;5.35;2.40;;;;;;;-2.12;89.77;100801.44;5042576;28;20469;-46
2021/12/26 01:26:27;;;;;;;4.35;2.20;;;;;;;-2.11;90.79;100784.81;5044406;28;20032;-45
2021/12/26 01:28:53;;;;;;;6.20;2.60;;;;;;;-2.07;90.05;100788.94;5044484;28;20025;-45
2021/12/26 01:31:20;;;;;;;6.40;2.60;;;;;;;-2.02;89.85;100796.56;5044235;28;20108;-46
2021/12/26 01:33:47;;;;;;;5.47;2.42;;;;;;;-2.07;87.78;100789.81;5043798;28;20025;-46
2021/12/26 01:36:12;;;;;;;8.20;2.50;;;;;;;-2.07;89.08;100787.19;5044220;28;20081;-44
2021/12/26 01:38:37;;;;;;;5.65;2.78;;;;;;;-2.03;89.77;100792.28;5042908;28;20108;-47
2021/12/26 01:41:09;;;;;;;6.70;2.80;;;;;;;-2.06;87.85;100795.88;5045152;28;20025;-46
2021/12/26 01:43:35;;;;;;;4.35;2.65;;;;;;;-2.08;87.88;100795.97;5036204;28;20335;-45
2021/12/26 01:46:02;;;;;;;4.63;2.47;;;;;;;-2.09;89.20;100791.66;5044822;28;20374;-45
2021/12/26 01:48:27;;;;;;;6.15;2.65;;;;;;;-2.07;90.22;100787.19;5044294;28;20040;-44
2021/12/26 01:50:53;;;;;;;4.68;2.55;;;;;;;-2.04;89.09;100785.34;5042647;28;20033;-46
2021/12/26 01:53:22;;;;;;;6.57;2.58;;;;;;;-2.06;89.26;100788.03;5022101;28;20202;-44
2021/12/26 01:55:47;;;;;;;5.65;2.60;;;;;;;-2.08;90.17;100766.34;5028092;28;20140;-45
2021/12/26 01:58:18;;;;;;;7.95;2.90;;;;;;;-2.04;88.82;100775.72;5044195;28;20536;-47
2021/12/26 02:00:51;;;;;;;5.25;2.60;;;;;;;-2.04;88.94;100775.72;5042734;28;20108;-44
2021/12/26 02:03:16;;;;;;;5.07;2.83;;;;;;;-2.04;88.82;100767.84;5040846;28;20446;-43
2021/12/26 02:05:42;;;;;;;7.55;2.70;;;;;;;-2.04;88.91;100767.84;5038434;28;20052;-47
2021/12/26 02:08:08;;;;;;;4.60;2.50;;;;;;;-2.06;88.89;100774.94;5039285;28;20112;-45
2021/12/26 02:10:34;;;;;;;6.50;2.80;;;;;;;-2.03;88.74;100779.19;5037584;28;20044;-44
2021/12/26 02:13:00;;;;;;;5.80;2.70;;;;;;;-2.04;89.48;100775.72;5019520;28;20430;-46
2021/12/26 02:15:25;;;;;;;6.75;2.75;;;;;;;-2.03;90.10;100774.78;5019212;28;20151;-45
2021/12/26 02:17:50;;;;;;;5.13;2.53;;;;;;;-2.04;89.13;100774.88;5018054;28;20033;-45
2021/12/26 02:20:31;;;;;;;6.55;2.85;;;;;;;-2.04;89.85;100773.09;5018535;28;20038;-44
2021/12/26 02:23:03;;;;;;;6.32;2.42;;;;;;;-2.02;90.12;100770.41;5017158;28;20108;-46
2021/12/26 02:27:30;;;;;;;7.80;2.72;;;;;;;-2.03;88.94;100769.56;5019709;28;20386;-45
2021/12/26 02:28:17;;;;;;;4.82;2.65;;;;;;;-2.01;89.91;100772.09;5019973;28;20115;-45
2021/12/26 02:30:43;;;;;;;7.13;2.92;;;;;;;-2.02;89.46;100771.25;5019007;28;20266;-46
2021/12/26 02:33:11;;;;;;;8.40;3.35;;;;;;;-2.01;88.70;100770.31;5020275;28;20047;-46
2021/12/26 02:35:38;;;;;;;7.28;2.95;;;;;;;-2.02;89.35;100759.94;5019812;28;20220;-47
2021/12/26 02:38:03;;;;;;;6.45;2.88;;;;;;;-2.03;89.10;100766.94;5018951;28;20523;-44
2021/12/26 02:40:29;;;;;;;5.72;2.90;;;;;;;-2.03;89.25;100771.34;5021664;28;20021;-43
2021/12/26 02:42:54;;;;;;;5.55;3.00;;;;;;;-2.01;89.84;100765.09;5040216;28;20306;-47
2021/12/26 02:45:19;;;;;;;6.47;2.95;;;;;;;-2.01;89.09;100767.69;5039270;28;20269;-47
2021/12/26 02:47:48;;;;;;;7.50;3.20;;;;;;;-2.01;90.33;100759.84;5038099;28;20116;-43
2021/12/26 02:50:20;;;;;;;6.85;3.13;;;;;;;-2.00;89.86;100765.91;5039788;28;20036;-47
2021/12/26 02:52:45;;;;;;;;;;;;;;;-1.97;90.73;100756.16;5039413;28;20017;-45
2021/12/26 02:55:13;;;;;;;8.60;2.60;;;;;;;-2.01;90.09;100749.38;5038445;28;20349;-44
2021/12/26 02:57:39;;;;;;;6.53;2.90;;;;;;;-2.02;89.58;100752.94;5037680;28;20375;-45
2021/12/26 03:00:11;;;;;;;6.07;2.65;;;;;;;-2.00;91.21;100758.94;5038805;28;20175;-47
2021/12/26 03:02:40;;;;;;;6.13;2.85;;;;;;;-1.98;90.93;100754.44;5038373;28;20493;-44
2021/12/26 03:05:06;;;;;;;6.47;2.92;;;;;;;-2.00;89.43;100758.06;5040037;28;20340;-47
2021/12/26 03:07:31;;;;;;;5.72;2.97;;;;;;;-2.03;90.19;100759.09;5038124;28;20090;-44
2021/12/26 03:09:59;;;;;;;6.80;2.90;;;;;;;-2.02;90.91;100760.78;5037619;28;20155;-47
2021/12/26 03:12:26;;;;;;;10.27;3.13;;;;;;;-2.02;91.10;100759.94;5037202;28;20100;-47
2021/12/26 03:14:52;;;;;;;5.15;2.70;;;;;;;-2.01;91.53;100759.00;5036086;28;20341;-47
2021/12/26 03:17:17;;;;;;;6.72;2.92;;;;;;;-2.00;91.14;100764.16;5036018;28;20033;-47
2021/12/26 03:19:42;;;;;;;4.55;2.80;;;;;;;-2.00;90.25;100756.31;5035907;28;20025;-45
2021/12/26 03:22:08;;;;;;;4.40;2.45;;;;;;;-2.01;90.75;100745.94;5035959;28;20095;-45
2021/12/26 03:24:34;;;;;;;6.60;2.92;;;;;;;-2.05;88.93;100740.00;5035530;28;20885;-45
2021/12/26 03:27:01;;;;;;;6.63;3.10;;;;;;;-2.07;89.18;100736.63;5038467;28;20546;-44
2021/12/26 03:29:27;;;;;;;6.68;3.15;;;;;;;-2.08;89.95;100733.16;5038638;28;20021;-45
2021/12/26 03:31:52;;;;;;;5.85;3.00;;;;;;;-2.09;89.94;100726.25;5036809;28;20021;-45
2021/12/26 03:34:17;;;;;;;5.43;3.15;;;;;;;-2.10;90.72;100727.16;5036493;28;20025;-47
2021/12/26 03:36:42;;;;;;;8.65;2.70;;;;;;;-2.12;90.29;100725.56;5036715;28;20049;-46
2021/12/26 03:39:08;;;;;;;7.18;3.00;;;;;;;-2.14;90.34;100730.91;5036903;28;20116;-45
2021/12/26 03:41:34;;;;;;;7.03;2.65;;;;;;;-2.16;90.16;100727.50;5036210;28;20162;-43
2021/12/26 03:44:00;;;;;;;5.65;2.85;;;;;;;-2.21;88.66;100716.44;5038519;28;20412;-42
2021/12/26 03:46:25;;;;;;;9.10;3.30;;;;;;;-2.23;89.27;100720.06;5037619;28;20025;-43
2021/12/26 03:48:51;;;;;;;6.15;2.75;;;;;;;-2.28;89.31;100731.59;5037183;28;20110;-44
2021/12/26 03:51:18;;;;;;;5.22;2.90;;;;;;;-2.33;90.84;100722.31;5037188;28;20408;-46
2021/12/26 03:53:43;;;;;;;6.45;3.10;;;;;;;-2.31;89.76;100733.53;5036931;28;20086;-45
2021/12/26 03:56:09;;;;;;;5.63;2.92;;;;;;;-2.32;90.08;100731.88;5036434;28;20020;-45
2021/12/26 03:58:34;;;;;;;5.50;2.78;;;;;;;-2.32;90.49;100724.03;5037895;28;20035;-42
2021/12/26 04:00:59;;;;;;;5.25;2.88;;;;;;;-2.33;90.93;100717.94;5029797;28;20465;-43
2021/12/26 04:03:25;;;;;;;10.52;3.20;;;;;;;-2.35;89.99;100716.34;5018151;28;20234;-45
2021/12/26 04:05:50;;;;;;;5.82;2.85;;;;;;;-2.38;90.71;100717.31;5017330;28;20073;-43
2021/12/26 04:08:15;;;;;;;6.65;3.08;;;;;;;-2.44;90.87;100718.50;5017015;28;20397;-44
2021/12/26 04:10:40;;;;;;;4.82;2.78;;;;;;;-2.52;91.49;100710.22;5016823;28;20033;-45
2021/12/26 04:13:06;;;;;;;7.63;3.00;;;;;;;-2.54;91.82;100714.69;5038206;28;20099;-47
2021/12/26 04:15:32;;;;;;;5.30;2.92;;;;;;;-2.59;92.04;100719.31;5036438;28;20186;-45
2021/12/26 04:17:58;;;;;;;6.28;2.78;;;;;;;-2.66;91.62;100716.16;5038031;28;20028;-44
2021/12/26 04:20:25;;;;;;;4.72;2.85;;;;;;;-2.73;92.91;100711.31;5037744;28;20489;-44
2021/12/26 04:22:51;;;;;;;4.97;2.83;;;;;;;-2.80;93.09;100716.06;5034758;28;20067;-45
2021/12/26 04:25:20;;;;;;;9.82;3.15;;;;;;;-2.87;93.91;100712.03;5037317;28;20103;-43
2021/12/26 04:27:45;;;;;;;5.75;2.80;;;;;;;-2.94;94.44;100711.50;5036185;28;20017;-43
2021/12/26 04:30:13;;;;;;;5.60;3.10;;;;;;;-3.01;94.42;100702.28;5038037;28;20029;-48
2021/12/26 04:32:39;;;;;;;6.32;2.95;;;;;;;-3.03;94.46;100704.97;5036289;28;20035;-46
2021/12/26 04:35:05;;;;;;;6.00;2.95;;;;;;;-3.06;95.37;100710.34;5020404;28;20427;-43
2021/12/26 04:37:31;;;;;;;6.55;3.00;;;;;;;-3.11;95.85;100707.13;5016658;28;20068;-44
2021/12/26 04:39:56;;;;;;;6.07;3.15;;;;;;;-3.14;95.96;100714.28;5016380;28;20108;-48
2021/12/26 04:42:23;;;;;;;6.35;3.33;;;;;;;-3.19;96.47;100717.97;5017387;28;20056;-48
2021/12/26 04:44:50;;;;;;;5.95;3.08;;;;;;;-3.20;96.32;100715.44;5031391;28;20025;-45
2021/12/26 04:47:16;;;;;;;6.65;3.47;;;;;;;-3.22;97.69;100712.91;5016625;28;20030;-48
2021/12/26 04:49:41;;;;;;;6.78;3.22;;;;;;;-3.26;96.26;100700.94;5016659;28;20260;-44
2021/12/26 04:52:06;;;;;;;7.53;3.20;;;;;;;-3.28;97.76;100705.34;5017475;28;20414;-45
2021/12/26 04:54:32;;;;;;;5.70;2.83;;;;;;;-3.30;97.28;100707.19;5015389;28;20116;-45
2021/12/26 04:56:57;;;;;;;5.50;3.13;;;;;;;-3.33;96.58;100706.50;5018119;28;20356;-50
2021/12/26 04:59:22;;;;;;;6.05;3.17;;;;;;;-3.37;96.93;100711.03;5018089;28;20414;-45
2021/12/26 05:01:48;;;;;;;9.73;3.38;;;;;;;-3.40;97.42;100706.81;5017254;28;20036;-46
2021/12/26 05:04:13;;;;;;;5.85;3.15;;;;;;;-3.42;96.87;100695.59;5016994;28;20389;-47
2021/12/26 05:06:39;;;;;;;5.90;3.10;;;;;;;-3.43;97.25;100696.53;5016337;28;20355;-47
2021/12/26 05:09:05;;;;;;;8.05;3.33;;;;;;;-3.48;97.38;100690.69;5016326;28;20116;-46
2021/12/26 05:11:32;;;;;;;7.30;3.30;;;;;;;-3.48;98.01;100701.13;5023123;28;20075;-45
2021/12/26 05:13:57;;;;;;;8.50;3.35;;;;;;;-3.49;98.41;100699.44;5037179;28;20071;-44
2021/12/26 05:16:23;;;;;;;6.57;2.95;;;;;;;-3.51;98.10;100692.56;5037313;28;20060;-49
2021/12/26 05:18:48;;;;;;;6.97;3.10;;;;;;;-3.54;98.46;100696.19;5036055;28;20043;-44
2021/12/26 05:21:13;;;;;;;9.32;3.75;;;;;;;-3.54;98.45;100685.75;5035625;28;20548;-44
2021/12/26 05:23:38;;;;;;;6.22;3.50;;;;;;;-3.56;99.42;100685.81;5035490;28;20035;-44
2021/12/26 05:26:04;;;;;;;5.93;3.10;;;;;;;-3.58;98.72;100682.47;5036663;28;20112;-45
2021/12/26 05:28:29;;;;;;;5.68;3.20;;;;;;;-3.58;98.99;100684.19;5036622;28;20021;-46
2021/12/26 05:30:54;;;;;;;7.45;3.20;;;;;;;-3.58;98.95;100678.97;5037102;28;20047;-47
2021/12/26 05:33:20;;;;;;;9.55;3.10;;;;;;;-3.62;98.60;100677.44;5033458;28;20025;-43
2021/12/26 05:35:45;;;;;;;6.43;2.90;;;;;;;-3.60;98.62;100689.53;5015402;28;20032;-44
2021/12/26 05:38:10;;;;;;;6.88;3.33;;;;;;;-3.63;98.61;100681.84;5014260;28;20394;-48
2021/12/26 05:40:35;;;;;;;6.05;3.03;;;;;;;-3.62;99.39;100672.22;5017796;28;20125;-46
2021/12/26 05:43:01;;;;;;;6.65;3.55;;;;;;;-3.64;98.88;100668.84;5020701;28;20061;-47
2021/12/26 05:45:26;;;;;;;5.85;3.10;;;;;;;-3.65;99.29;100672.38;5019573;28;20037;-45
2021/12/26 05:47:51;;;;;;;5.45;2.97;;;;;;;-3.68;100.00;100664.69;5019989;28;20124;-45
2021/12/26 05:50:20;;;;;;;6.97;3.28;;;;;;;-3.70;99.24;100663.91;5019498;28;20043;-49
2021/12/26 05:52:46;;;;;;;9.35;3.63;;;;;;;-3.70;100.00;100661.31;5018637;28;20022;-47
2021/12/26 05:55:12;;;;;;;6.57;3.40;;;;;;;-3.69;100.00;100655.19;5020232;28;20176;-45
2021/12/26 05:57:37;;;;;;;7.18;3.20;;;;;;;-3.70;99.51;100658.69;5019629;28;20025;-46
2021/12/26 06:00:06;;;;;;;8.30;3.40;;;;;;;-3.69;100.00;100670.84;5020880;28;20622;-45
2021/12/26 06:02:31;;;;;;;8.15;3.38;;;;;;;-3.73;99.59;100659.72;5019123;28;20035;-44
2021/12/26 06:04:57;;;;;;;8.27;3.50;;;;;;;-3.73;100.00;100649.28;5019913;28;20021;-47
2021/12/26 06:07:22;;;;;;;6.72;3.53;;;;;;;-3.75;100.00;100658.94;5019099;28;20497;-45
2021/12/26 06:09:48;;;;;;;5.53;3.15;;;;;;;-3.75;100.00;100659.78;5019109;28;20041;-47
2021/12/26 06:12:13;;;;;;;6.55;3.38;;;;;;;-3.81;100.00;100657.47;5032659;28;20028;-44
2021/12/26 06:14:38;;;;;;;7.55;3.28;;;;;;;-3.84;99.82;100660.22;5039658;28;20158;-45
2021/12/26 06:17:04;;;;;;;8.60;3.70;;;;;;;-3.82;99.90;100650.56;5039839;28;20029;-45
2021/12/26 06:19:29;;;;;;;7.50;3.70;;;;;;;-3.82;100.00;100658.41;5038361;28;20017;-45
2021/12/26 06:21:54;;;;;;;6.15;3.20;;;;;;;-3.84;100.00;100652.38;5039887;28;20039;-44
2021/12/26 06:24:20;;;;;;;6.72;3.40;;;;;;;-3.83;100.00;100656.69;5038735;28;20420;-43
2021/12/26 06:26:46;;;;;;;6.40;3.50;;;;;;;-3.84;100.00;100657.59;5039029;28;20028;-45
2021/12/26 06:29:12;;;;;;;7.20;3.50;;;;;;;-3.85;100.00;100655.94;5039481;28;20109;-44
2021/12/26 06:31:37;;;;;;;7.75;3.50;;;;;;;-3.88;100.00;100653.47;5038733;28;20448;-47
2021/12/26 06:34:03;;;;;;;7.20;3.70;;;;;;;-3.89;100.00;100651.75;5039191;28;20338;-48
2021/12/26 06:36:28;;;;;;;7.07;3.17;;;;;;;-3.89;100.00;100649.16;5038668;28;20044;-44
2021/12/26 06:38:53;;;;;;;5.90;3.00;;;;;;;-3.89;100.00;100650.91;5038561;28;20028;-48
2021/12/26 06:41:19;;;;;;;7.40;3.30;;;;;;;-3.92;100.00;100646.72;5038760;28;20025;-47
2021/12/26 06:43:44;;;;;;;7.30;3.42;;;;;;;-3.91;100.00;100657.97;5037306;28;20013;-46
2021/12/26 06:46:10;;;;;;;6.28;3.03;;;;;;;-3.92;100.00;100657.16;5038814;28;20101;-46
2021/12/26 06:48:41;;;;;;;7.63;3.28;;;;;;;-3.91;100.00;100661.44;5020074;28;20043;-46
2021/12/26 06:51:07;;;;;;;9.40;3.80;;;;;;;-3.91;100.00;100657.97;5037107;28;20386;-46
2021/12/26 06:53:33;;;;;;;8.30;3.78;;;;;;;-3.91;100.00;100661.44;5038223;28;20436;-48
2021/12/26 06:55:58;;;;;;;7.85;2.90;;;;;;;-3.90;100.00;100659.66;5039006;28;20233;-46
2021/12/26 06:58:23;;;;;;;7.50;3.33;;;;;;;-3.89;100.00;100663.97;5037587;28;20485;-49
2021/12/26 07:00:49;;;;;;;8.55;3.42;;;;;;;-3.88;100.00;100665.66;5037548;28;20025;-47
2021/12/26 07:03:15;;;;;;;9.75;4.10;;;;;;;-3.89;100.00;100667.41;5038472;28;20028;-50
2021/12/26 07:05:40;;;;;;;6.72;3.25;;;;;;;-3.90;100.00;100657.91;5038709;28;20036;-45
2021/12/26 07:08:06;;;;;;;6.80;3.33;;;;;;;-3.93;100.00;100658.06;5037903;28;20032;-46
2021/12/26 07:10:32;;;;;;;7.65;3.65;;;;;;;-3.92;100.00;100662.38;5038096;28;20032;-47
2021/12/26 07:12:57;;;;;;;6.40;3.40;;;;;;;-3.97;100.00;100657.34;5038503;28;20035;-47
2021/12/26 07:15:22;;;;;;;8.43;3.40;;;;;;;-3.94;100.00;100664.19;5038690;28;20234;-45
2021/12/26 07:17:48;;;;;;;6.88;3.70;;;;;;;-3.92;100.00;100661.50;5037899;28;20370;-45
2021/12/26 07:20:14;;;;;;;10.52;3.63;;;;;;;-3.93;100.00;100660.66;5038624;28;20017;-46
2021/12/26 07:22:40;;;;;;;7.53;3.63;;;;;;;-3.92;100.00;100659.75;5036922;28;20064;-48
2021/12/26 07:25:07;;;;;;;8.68;3.58;;;;;;;-3.93;100.00;100658.06;5037926;28;20025;-46
2021/12/26 07:27:33;;;;;;;7.68;3.42;;;;;;;-3.93;100.00;100645.00;5036301;28;20041;-46
2021/12/26 07:30:02;;;;;;;10.07;3.97;;;;;;;-3.95;100.00;100642.47;5035280;28;20040;-46
2021/12/26 07:32:27;;;;;;;7.47;3.50;;;;;;;-3.94;100.00;100649.38;5037957;28;20029;-49
2021/12/26 07:34:53;;;;;;;9.23;3.88;;;;;;;-3.95;100.00;100645.06;5036283;28;20042;-49
2021/12/26 07:37:18;;;;;;;10.77;3.25;;;;;;;-3.95;100.00;100658.13;5036607;28;20057;-44
2021/12/26 07:39:43;;;;;;;8.05;3.55;;;;;;;-3.95;100.00;100652.06;5037097;28;20523;-45
2021/12/26 07:42:09;;;;;;;7.07;3.75;;;;;;;-3.96;100.00;100651.19;5038234;28;20085;-45
2021/12/26 07:44:34;;;;;;;9.65;3.67;;;;;;;-3.97;100.00;100644.31;5037524;28;20127;-45
2021/12/26 07:46:59;;;;;;;6.10;3.30;;;;;;;-3.94;100.00;100640.69;5037999;28;20064;-46
2021/12/26 07:49:25;;;;;;;8.57;3.60;;;;;;;-3.93;100.00;100652.84;5036505;28;20438;-44
2021/12/26 07:51:51;;;;;;;7.07;3.53;;;;;;;-3.92;100.00;100651.94;5037382;28;20024;-44
2021/12/26 07:54:17;;;;;;;8.65;3.67;;;;;;;-3.91;100.00;100650.16;5036022;28;20104;-45
2021/12/26 07:56:43;;;;;;;7.80;3.80;;;;;;;-3.91;100.00;100651.00;5035980;28;20124;-45
2021/12/26 07:59:09;;;;;;;8.65;3.67;;;;;;;-3.87;100.00;100657.78;5037076;28;20454;-43
2021/12/26 08:01:34;;;;;;;7.63;3.90;;;;;;;-3.86;100.00;100648.16;5021838;28;20048;-44
2021/12/26 08:04:01;;;;;;;7.00;3.40;;;;;;;-3.85;100.00;100650.72;5016353;28;20386;-45
2021/12/26 08:06:29;;;;;;;9.50;3.55;;;;;;;-3.82;100.00;100662.75;5016896;28;20026;-48
2021/12/26 08:08:54;;;;;;;10.77;4.00;;;;;;;-3.82;100.00;100661.00;5016230;28;20250;-44
2021/12/26 08:11:20;;;;;;;10.35;4.47;;;;;;;-3.79;100.00;100663.44;5015520;28;20337;-46
2021/12/26 08:13:45;;;;;;;9.20;4.32;;;;;;;-3.77;100.00;100664.25;5016096;28;20033;-45
2021/12/26 08:16:11;;;;;;;8.88;4.20;;;;;;;-3.76;100.00;100668.53;5017333;28;20083;-45
2021/12/26 08:18:36;;;;;;;9.05;4.05;;;;;;;-3.74;100.00;100668.44;5017359;28;20029;-46
2021/12/26 08:21:02;;;;;;;8.70;3.55;;;;;;;-3.72;100.00;100666.59;5015914;28;20462;-46
2021/12/26 08:23:27;;;;;;;7.20;3.70;;;;;;;-3.69;100.00;100663.00;5015010;28;20086;-47
2021/12/26 08:25:54;;;;;;;7.25;3.65;;;;;;;-3.66;100.00;100670.69;5025948;28;20033;-46
2021/12/26 08:28:19;;;;;;;9.95;4.18;;;;;;;-3.66;100.00;100668.94;5035887;28;20043;-45
2021/12/26 08:30:45;;;;;;;8.48;4.00;;;;;;;-3.60;100.00;100670.38;5036084;28;20596;-45
2021/12/26 08:33:10;;;;;;;8.57;3.95;;;;;;;-3.59;100.00;100666.88;5035975;28;20029;-44
2021/12/26 08:35:37;;;;;;;7.22;3.95;;;;;;;-3.57;100.00;100668.47;5036159;28;20036;-44
2021/12/26 08:38:04;;;;;;;9.25;4.30;;;;;;;-3.53;100.00;100663.97;5035623;28;20052;-47
2021/12/26 08:40:29;;;;;;;8.05;3.83;;;;;;;-3.49;100.00;100662.03;5036448;28;20017;-46
2021/12/26 08:42:54;;;;;;;8.18;3.95;;;;;;;-3.45;100.00;100669.63;5037437;28;20025;-45
2021/12/26 08:45:20;;;;;;;9.77;4.18;;;;;;;-3.43;100.00;100661.72;5036778;28;20029;-48
2021/12/26 08:47:47;;;;;;;9.63;3.95;;;;;;;-3.33;100.00;100664.72;5035826;28;20099;-45
2021/12/26 08:50:12;;;;;;;8.07;4.15;;;;;;;-3.24;100.00;100674.69;5035859;28;20096;-45
2021/12/26 08:52:38;;;;;;;9.02;4.63;;;;;;;-3.15;100.00;100663.81;5034902;28;20132;-48
2021/12/26 08:55:05;;;;;;;11.98;5.00;;;;;;;-3.04;100.00;100673.69;5036506;28;20025;-44
2021/12/26 08:57:32;;;;;;;8.52;4.22;;;;;;;-2.92;100.00;100667.00;5036062;28;20106;-46
2021/12/26 08:59:57;;;;;;;10.20;4.50;;;;;;;-2.86;100.00;100659.69;5035520;28;20013;-48
2021/12/26 09:02:24;;;;;;;8.48;4.18;;;;;;;-2.73;100.00;100659.03;5036793;28;20021;-45
2021/12/26 09:04:49;;;;;;;9.43;4.30;;;;;;;-2.62;100.00;100659.34;5035014;28;20524;-45
2021/12/26 09:07:14;;;;;;;9.32;4.07;;;;;;;-2.53;100.00;100658.88;5034983;28;20040;-43
2021/12/26 09:09:42;;;;;;;7.93;4.28;;;;;;;-2.46;100.00;100665.44;5035671;28;20095;-43
2021/12/26 09:12:08;;;;;;;8.60;4.63;;;;;;;-2.38;100.00;100659.78;5035433;28;20111;-45
2021/12/26 09:14:34;;;;;;;7.72;4.20;;;;;;;-2.30;100.00;100656.78;5038266;28;20385;-48
2021/12/26 09:17:01;;;;;;;17.77;4.55;;;;;;;-2.23;100.00;100655.50;5040908;28;20023;-44
2021/12/26 09:19:28;;;;;;;6.90;3.88;;;;;;;-2.17;100.00;100656.94;5039749;28;20103;-46
2021/12/26 09:22:03;;;;;;;9.15;4.45;;;;;;;-2.14;100.00;100656.78;5039442;28;20090;-42
2021/12/26 09:24:29;;;;;;;8.95;4.38;;;;;;;-2.10;100.00;100658.31;5039939;28;20021;-44
2021/12/26 09:26:54;;;;;;;12.65;4.68;;;;;;;-2.08;100.00;100657.28;5038275;28;20029;-44
2021/12/26 09:29:20;;;;;;;9.23;4.35;;;;;;;-2.00;100.00;100650.78;5040267;28;20059;-43
2021/12/26 09:31:46;;;;;;;9.27;4.68;;;;;;;-1.94;100.00;100655.69;5039047;28;20039;-45
2021/12/26 09:34:13;;;;;;;11.55;4.53;;;;;;;-1.91;100.00;100656.34;5039715;28;20021;-46
2021/12/26 09:36:38;;;;;;;11.40;4.72;;;;;;;-1.85;99.93;100663.03;5040098;28;20176;-44
2021/12/26 09:39:05;;;;;;;12.50;4.80;;;;;;;-1.81;100.00;100655.84;5038144;28;20528;-44
2021/12/26 09:41:30;;;;;;;12.50;4.80;;;;;;;-1.77;99.75;100659.97;5038885;28;20106;-47
2021/12/26 09:43:55;;;;;;;9.10;4.93;;;;;;;-1.75;100.00;100653.72;5040330;28;20021;-46
2021/12/26 09:46:21;;;;;;;11.38;4.65;;;;;;;-1.71;100.00;100647.38;5039259;28;20020;-45
2021/12/26 09:48:46;;;;;;;10.77;4.82;;;;;;;-1.64;100.00;100650.50;5038703;28;20024;-46
2021/12/26 09:51:12;;;;;;;11.38;5.32;;;;;;;-1.61;99.46;100652.94;5039396;28;20425;-45
2021/12/26 09:53:40;;;;;;;9.68;4.78;;;;;;;-1.55;100.00;100652.56;5037494;28;20028;-43
2021/12/26 09:56:06;;;;;;;12.50;5.05;;;;;;;-1.49;99.89;100651.41;5040025;28;20381;-43
2021/12/26 09:58:33;;;;;;;11.13;5.47;;;;;;;-1.45;100.00;100636.34;5039971;28;20103;-45
2021/12/26 10:00:58;;;;;;;13.40;5.18;;;;;;;-1.41;100.00;100641.31;5039867;28;20606;-45
2021/12/26 10:03:36;;;;;;;10.27;5.25;;;;;;;-1.37;100.00;100642.81;5040398;28;20378;-43
2021/12/26 10:06:11;;;;;;;11.70;5.15;;;;;;;-1.34;100.00;100647.88;5040069;28;20325;-45
2021/12/26 10:08:55;;;;;;;10.43;5.20;;;;;;;-1.27;100.00;100651.00;5038463;28;20336;-44
2021/12/26 10:11:23;;;;;;;11.85;5.07;;;;;;;-1.23;100.00;100643.78;5018012;28;20033;-42
2021/12/26 10:13:51;;;;;;;12.38;5.35;;;;;;;-1.20;99.89;100630.50;5018707;28;20308;-45
2021/12/26 10:16:20;;;;;;;10.95;5.78;;;;;;;-1.17;99.94;100632.94;5020333;28;20079;-43
2021/12/26 10:18:46;;;;;;;9.98;5.32;;;;;;;-1.11;99.98;100631.75;5019687;28;20079;-44
2021/12/26 10:21:25;;;;;;;9.93;5.25;;;;;;;-1.04;99.98;100630.44;5020250;28;20102;-48
2021/12/26 10:23:51;;;;;;;12.73;5.57;;;;;;;-1.00;99.28;100629.31;5036881;28;20280;-45
2021/12/26 10:26:26;;;;;;;12.15;5.40;;;;;;;-0.93;100.00;100620.16;5038706;28;20585;-42
2021/12/26 10:29:18;;;;;;;12.23;5.68;;;;;;;-0.88;100.00;100607.63;5040138;28;20025;-45
2021/12/26 10:31:56;;;;;;;12.63;5.78;;;;;;;-0.81;99.87;100618.56;5040496;28;20417;-45
2021/12/26 10:34:28;;;;;;;10.55;5.65;;;;;;;-0.77;100.00;100605.16;5039579;28;20051;-44
2021/12/26 10:36:56;;;;;;;13.57;6.55;;;;;;;-0.70;100.00;100600.38;5038528;28;20675;-45
2021/12/26 10:39:26;;;;;;;16.23;6.53;;;;;;;-0.61;100.00;100598.97;5038553;28;20025;-45
2021/12/26 10:41:56;;;;;;;12.68;6.28;;;;;;;-0.55;100.00;100588.09;5039679;28;20029;-44
2021/12/26 10:44:28;;;;;;;12.60;6.22;;;;;;;-0.50;99.88;100580.78;5039809;28;20040;-45
2021/12/26 10:47:05;;;;;;;12.32;5.45;;;;;;;-0.46;99.23;100584.06;5039568;28;20344;-46
2021/12/26 10:49:37;;;;;;;13.05;6.07;;;;;;;-0.45;100.00;100597.06;5039093;28;20123;-47
2021/12/26 10:52:09;;;;;;;14.48;6.50;;;;;;;-0.44;100.00;100584.78;5038705;28;20051;-44
2021/12/26 10:54:35;;;;;;;11.68;6.20;;;;;;;-0.44;99.45;100583.03;5033527;28;20028;-47
2021/12/26 10:57:10;;;;;;;12.05;6.13;;;;;;;-0.42;100.00;100583.78;5038179;28;20032;-45
2021/12/26 10:59:38;;;;;;;11.00;5.70;;;;;;;-0.45;99.37;100586.59;5039392;28;20067;-43
2021/12/26 11:02:05;;;;;;;12.10;6.40;;;;;;;-0.42;99.51;100596.88;5040250;28;20021;-43
2021/12/26 11:04:30;;;;;;;17.67;6.43;;;;;;;-0.37;100.00;100599.22;5039041;28;20028;-43
2021/12/26 11:07:08;;;;;;;14.82;6.30;;;;;;;-0.32;100.00;100596.28;5038216;28;20488;-44
2021/12/26 11:09:33;;;;;;;15.20;6.78;;;;;;;-0.30;99.93;100592.66;5038288;28;20044;-45
2021/12/26 11:12:09;;;;;;;19.85;6.32;;;;;;;-0.25;100.00;100585.31;5040092;28;20276;-44
2021/12/26 11:14:59;;;;;;;16.73;7.07;;;;;;;-0.17;100.00;100582.22;5038845;28;20033;-47
2021/12/26 11:17:29;;;;;;;16.80;7.43;;;;;;;-0.14;100.00;100571.50;5039521;28;20025;-45